createdAt,value
2018-06-16T00:00:37.902Z,0.00
2018-06-16T00:01:37.897Z,0.00
2018-06-16T00:02:37.897Z,0.00
2018-06-16T00:03:38.005Z,0.00
2018-06-16T00:04:37.852Z,0.00
2018-06-16T00:05:37.843Z,0.00
2018-06-16T00:06:37.852Z,0.00
2018-06-16T00:07:37.827Z,0.00
2018-06-16T00:08:37.829Z,0.00
2018-06-16T00:09:37.885Z,0.00
2018-06-16T00:10:37.812Z,0.00
2018-06-16T00:11:37.865Z,0.00
2018-06-16T00:12:37.829Z,0.00
2018-06-16T00:13:37.783Z,0.00
2018-06-16T00:14:37.816Z,0.00
2018-06-16T00:15:37.800Z,0.00
2018-06-16T00:16:38.723Z,0.00
2018-06-16T00:17:37.762Z,0.00
2018-06-16T00:18:37.747Z,0.00
2018-06-16T00:19:37.821Z,0.00
2018-06-16T00:20:38.571Z,0.00
2018-06-16T00:21:37.728Z,0.00
2018-06-16T00:22:37.721Z,0.00
2018-06-16T00:23:37.717Z,0.00
2018-06-16T00:24:37.712Z,0.00
2018-06-16T00:25:37.732Z,0.00
2018-06-16T00:26:37.707Z,0.00
2018-06-16T00:27:37.698Z,0.00
2018-06-16T00:28:37.666Z,0.00
2018-06-16T00:29:37.684Z,0.00
2018-06-16T00:30:37.732Z,0.00
2018-06-16T00:31:37.680Z,0.00
2018-06-16T00:32:37.671Z,0.00
2018-06-16T00:33:37.629Z,0.00
2018-06-16T00:34:37.650Z,0.00
2018-06-16T00:35:37.662Z,0.00
2018-06-16T00:36:37.652Z,0.00
2018-06-16T00:37:37.601Z,0.00
2018-06-16T00:38:37.596Z,0.00
2018-06-16T00:39:37.585Z,0.00
2018-06-16T00:40:37.616Z,0.00
2018-06-16T00:41:37.604Z,0.00
2018-06-16T00:42:37.574Z,0.00
2018-06-16T00:43:37.560Z,0.00
2018-06-16T00:44:37.651Z,0.00
2018-06-16T00:45:37.548Z,0.00
2018-06-16T00:46:37.657Z,0.00
2018-06-16T00:47:37.527Z,0.00
2018-06-16T00:48:37.551Z,0.00
2018-06-16T00:49:37.519Z,0.00
2018-06-16T00:50:37.649Z,0.00
2018-06-16T00:51:38.254Z,0.00
2018-06-16T00:52:37.536Z,0.00
2018-06-16T00:53:37.703Z,0.00
2018-06-16T00:54:37.485Z,0.00
2018-06-16T00:55:37.473Z,0.00
2018-06-16T00:56:37.493Z,0.00
2018-06-16T00:57:37.462Z,0.00
2018-06-16T00:58:37.527Z,0.00
2018-06-16T00:59:37.471Z,0.00
2018-06-16T01:00:37.457Z,0.00
2018-06-16T01:01:37.467Z,0.00
2018-06-16T01:02:37.416Z,0.00
2018-06-16T01:03:37.416Z,0.00
2018-06-16T01:04:37.415Z,0.00
2018-06-16T01:05:37.409Z,0.00
2018-06-16T01:06:37.424Z,0.00
2018-06-16T01:07:37.398Z,0.00
2018-06-16T01:08:37.377Z,0.00
2018-06-16T01:09:37.409Z,0.00
2018-06-16T01:10:37.381Z,0.00
2018-06-16T01:11:37.353Z,0.00
2018-06-16T01:12:37.350Z,0.00
2018-06-16T01:13:37.328Z,0.00
2018-06-16T01:14:37.361Z,0.00
2018-06-16T01:15:37.341Z,0.00
2018-06-16T01:16:37.304Z,0.00
2018-06-16T01:17:37.327Z,0.00
2018-06-16T01:18:37.373Z,0.00
2018-06-16T01:19:37.333Z,0.00
2018-06-16T01:20:37.297Z,0.00
2018-06-16T01:21:37.287Z,0.00
2018-06-16T01:22:37.296Z,0.00
2018-06-16T01:23:37.260Z,0.00
2018-06-16T01:24:37.255Z,0.00
2018-06-16T01:25:37.244Z,0.00
2018-06-16T01:26:37.281Z,0.00
2018-06-16T01:27:37.235Z,0.00
2018-06-16T01:28:37.228Z,0.00
2018-06-16T01:29:37.212Z,0.00
2018-06-16T01:30:37.203Z,0.00
2018-06-16T01:31:37.237Z,0.00
2018-06-16T01:32:37.187Z,0.00
2018-06-16T01:33:37.173Z,0.00
2018-06-16T01:34:37.232Z,0.00
2018-06-16T01:35:37.164Z,0.00
2018-06-16T01:36:37.140Z,0.00
2018-06-16T01:37:37.145Z,0.00
2018-06-16T01:38:37.152Z,0.00
2018-06-16T01:39:37.160Z,0.00
2018-06-16T01:40:37.120Z,0.00
2018-06-16T01:41:37.178Z,0.00
2018-06-16T01:42:37.149Z,0.00
2018-06-16T01:43:37.148Z,0.00
2018-06-16T01:44:37.149Z,0.00
2018-06-16T01:45:37.099Z,0.00
2018-06-16T01:46:37.071Z,0.00
2018-06-16T01:47:37.066Z,0.00
2018-06-16T01:48:37.065Z,0.00
2018-06-16T01:49:37.205Z,0.00
2018-06-16T01:50:37.038Z,0.00
2018-06-16T01:51:37.051Z,0.00
2018-06-16T01:52:37.021Z,0.00
2018-06-16T01:53:37.020Z,0.00
2018-06-16T01:54:37.018Z,0.00
2018-06-16T01:55:37.047Z,0.00
2018-06-16T01:56:37.031Z,0.00
2018-06-16T01:57:36.982Z,0.00
2018-06-16T01:58:36.983Z,0.00
2018-06-16T01:59:37.028Z,0.00
2018-06-16T02:00:37.006Z,0.00
2018-06-16T02:01:36.963Z,0.00
2018-06-16T02:02:36.948Z,0.00
2018-06-16T02:03:36.930Z,0.00
2018-06-16T02:04:36.936Z,0.00
2018-06-16T02:05:36.925Z,0.00
2018-06-16T02:06:36.921Z,0.00
2018-06-16T02:07:36.918Z,0.00
2018-06-16T02:08:36.932Z,0.00
2018-06-16T02:09:36.912Z,0.00
2018-06-16T02:10:36.880Z,0.00
2018-06-16T02:11:36.935Z,0.00
2018-06-16T02:12:36.893Z,0.00
2018-06-16T02:13:36.872Z,0.00
2018-06-16T02:14:36.851Z,0.00
2018-06-16T02:15:36.854Z,0.00
2018-06-16T02:16:36.872Z,0.00
2018-06-16T02:17:37.030Z,0.00
2018-06-16T02:18:36.824Z,0.00
2018-06-16T02:19:36.845Z,0.00
2018-06-16T02:20:36.803Z,0.00
2018-06-16T02:21:36.792Z,0.00
2018-06-16T02:22:36.788Z,0.00
2018-06-16T02:23:36.833Z,0.00
2018-06-16T02:24:36.790Z,0.00
2018-06-16T02:25:36.780Z,0.00
2018-06-16T02:26:36.756Z,0.00
2018-06-16T02:27:36.744Z,0.00
2018-06-16T02:28:36.753Z,0.00
2018-06-16T02:29:36.747Z,0.00
2018-06-16T02:30:36.719Z,0.00
2018-06-16T02:31:36.704Z,0.00
2018-06-16T02:32:36.741Z,0.00
2018-06-16T02:33:36.727Z,0.00
2018-06-16T02:34:36.761Z,4.00
2018-06-16T02:35:36.711Z,4.00
2018-06-16T02:36:36.669Z,0.00
2018-06-16T02:37:36.684Z,0.00
2018-06-16T02:38:36.697Z,4.00
2018-06-16T02:39:36.756Z,4.00
2018-06-16T02:40:36.637Z,4.00
2018-06-16T02:41:36.649Z,0.00
2018-06-16T02:42:36.632Z,4.00
2018-06-16T02:43:36.642Z,4.00
2018-06-16T02:44:36.636Z,4.00
2018-06-16T02:45:36.604Z,4.00
2018-06-16T02:46:36.610Z,4.00
2018-06-16T02:47:38.838Z,4.00
2018-06-16T02:48:36.601Z,4.00
2018-06-16T02:49:36.564Z,4.00
2018-06-16T02:50:36.703Z,4.00
2018-06-16T02:51:36.608Z,4.00
2018-06-16T02:52:36.547Z,8.00
2018-06-16T02:53:36.587Z,8.00
2018-06-16T02:54:36.534Z,4.00
2018-06-16T02:55:36.523Z,8.00
2018-06-16T02:56:36.556Z,8.00
2018-06-16T02:57:36.513Z,8.00
2018-06-16T02:58:36.500Z,8.00
2018-06-16T02:59:36.484Z,12.00
2018-06-16T03:00:37.330Z,8.00
2018-06-16T03:01:36.497Z,12.00
2018-06-16T03:02:36.515Z,12.00
2018-06-16T03:03:36.468Z,16.00
2018-06-16T03:04:36.461Z,20.00
2018-06-16T03:05:36.441Z,20.00
2018-06-16T03:06:36.510Z,20.00
2018-06-16T03:07:36.471Z,24.00
2018-06-16T03:08:36.413Z,24.00
2018-06-16T03:09:36.404Z,24.00
2018-06-16T03:10:36.410Z,28.00
2018-06-16T03:11:36.422Z,28.00
2018-06-16T03:12:36.423Z,32.00
2018-06-16T03:13:36.390Z,36.00
2018-06-16T03:14:36.374Z,36.00
2018-06-16T03:15:36.374Z,36.00
2018-06-16T03:16:36.351Z,40.00
2018-06-16T03:17:36.395Z,44.00
2018-06-16T03:18:36.365Z,44.00
2018-06-16T03:19:36.323Z,48.00
2018-06-16T03:20:36.366Z,56.00
2018-06-16T03:21:36.325Z,64.00
2018-06-16T03:22:36.308Z,68.00
2018-06-16T03:23:36.387Z,72.00
2018-06-16T03:24:36.288Z,80.00
2018-06-16T03:25:37.297Z,84.00
2018-06-16T03:26:36.803Z,88.00
2018-06-16T03:27:36.308Z,88.00
2018-06-16T03:28:36.264Z,92.00
2018-06-16T03:29:36.273Z,96.00
2018-06-16T03:30:36.260Z,104.00
2018-06-16T03:31:36.271Z,112.00
2018-06-16T03:32:36.245Z,116.00
2018-06-16T03:33:36.233Z,128.00
2018-06-16T03:34:36.218Z,140.00
2018-06-16T03:35:36.368Z,148.00
2018-06-16T03:36:36.202Z,156.00
2018-06-16T03:37:36.227Z,160.00
2018-06-16T03:38:36.180Z,164.00
2018-06-16T03:39:36.184Z,168.00
2018-06-16T03:40:36.162Z,176.00
2018-06-16T03:41:36.166Z,180.00
2018-06-16T03:42:36.186Z,192.00
2018-06-16T03:43:36.133Z,200.00
2018-06-16T03:44:36.260Z,204.00
2018-06-16T03:45:36.136Z,216.00
2018-06-16T03:46:36.169Z,220.00
2018-06-16T03:47:36.216Z,232.00
2018-06-16T03:48:36.155Z,240.00
2018-06-16T03:49:36.161Z,248.00
2018-06-16T03:50:36.098Z,260.00
2018-06-16T03:51:36.070Z,272.00
2018-06-16T03:52:36.179Z,292.00
2018-06-16T03:53:36.080Z,308.00
2018-06-16T03:54:36.054Z,324.00
2018-06-16T03:55:36.048Z,344.00
2018-06-16T03:56:36.067Z,360.00
2018-06-16T03:57:36.017Z,372.00
2018-06-16T03:58:36.111Z,392.00
2018-06-16T03:59:36.013Z,404.00
2018-06-16T04:00:36.013Z,416.00
2018-06-16T04:01:35.992Z,412.00
2018-06-16T04:02:36.003Z,416.00
2018-06-16T04:03:35.974Z,428.00
2018-06-16T04:04:36.011Z,432.00
2018-06-16T04:05:35.962Z,444.00
2018-06-16T04:06:35.960Z,444.00
2018-06-16T04:07:35.947Z,448.00
2018-06-16T04:08:35.975Z,456.00
2018-06-16T04:09:35.917Z,460.00
2018-06-16T04:10:35.931Z,468.00
2018-06-16T04:11:35.912Z,480.00
2018-06-16T04:12:35.916Z,488.00
2018-06-16T04:13:35.932Z,496.00
2018-06-16T04:14:35.886Z,496.00
2018-06-16T04:15:35.884Z,500.00
2018-06-16T04:16:35.916Z,508.00
2018-06-16T04:17:36.112Z,500.00
2018-06-16T04:18:35.864Z,504.00
2018-06-16T04:19:35.889Z,512.00
2018-06-16T04:20:35.850Z,516.00
2018-06-16T04:21:35.875Z,524.00
2018-06-16T04:22:35.842Z,536.00
2018-06-16T04:23:35.825Z,544.00
2018-06-16T04:24:35.819Z,556.00
2018-06-16T04:25:35.814Z,548.00
2018-06-16T04:26:35.947Z,548.00
2018-06-16T04:27:35.803Z,556.00
2018-06-16T04:28:36.426Z,548.00
2018-06-16T04:29:35.781Z,552.00
2018-06-16T04:30:35.770Z,556.00
2018-06-16T04:31:35.753Z,572.00
2018-06-16T04:32:35.780Z,588.00
2018-06-16T04:33:35.731Z,612.00
2018-06-16T04:34:35.732Z,612.00
2018-06-16T04:35:35.729Z,628.00
2018-06-16T04:36:35.768Z,624.00
2018-06-16T04:37:35.706Z,648.00
2018-06-16T04:38:35.734Z,652.00
2018-06-16T04:39:35.694Z,664.00
2018-06-16T04:40:35.685Z,652.00
2018-06-16T04:41:35.700Z,664.00
2018-06-16T04:42:35.666Z,672.00
2018-06-16T04:43:35.689Z,676.00
2018-06-16T04:44:35.660Z,684.00
2018-06-16T04:45:35.679Z,692.00
2018-06-16T04:46:35.639Z,692.00
2018-06-16T04:47:35.634Z,700.00
2018-06-16T04:48:35.649Z,724.00
2018-06-16T04:49:35.606Z,764.00
2018-06-16T04:50:35.625Z,792.00
2018-06-16T04:51:35.601Z,824.00
2018-06-16T04:52:35.590Z,840.00
2018-06-16T04:53:35.588Z,852.00
2018-06-16T04:54:35.576Z,864.00
2018-06-16T04:55:35.634Z,876.00
2018-06-16T04:56:35.568Z,896.00
2018-06-16T04:57:35.613Z,916.00
2018-06-16T04:58:37.335Z,932.00
2018-06-16T04:59:35.551Z,956.00
2018-06-16T05:00:35.526Z,1000.00
2018-06-16T05:01:35.560Z,1024.00
2018-06-16T05:02:35.508Z,1044.00
2018-06-16T05:03:35.511Z,1060.00
2018-06-16T05:04:35.503Z,1092.00
2018-06-16T05:05:35.489Z,1096.00
2018-06-16T05:06:35.523Z,1100.00
2018-06-16T05:07:35.475Z,1092.00
2018-06-16T05:08:35.517Z,1080.00
2018-06-16T05:09:35.463Z,1044.00
2018-06-16T05:10:35.451Z,1008.00
2018-06-16T05:11:35.529Z,1024.00
2018-06-16T05:12:35.462Z,1024.00
2018-06-16T05:13:35.430Z,1016.00
2018-06-16T05:14:35.445Z,1004.00
2018-06-16T05:15:35.414Z,984.00
2018-06-16T05:16:35.410Z,988.00
2018-06-16T05:17:35.417Z,1020.00
2018-06-16T05:18:35.434Z,1036.00
2018-06-16T05:19:35.391Z,1048.00
2018-06-16T05:20:35.398Z,1080.00
2018-06-16T05:21:35.376Z,1112.00
2018-06-16T05:22:35.366Z,1128.00
2018-06-16T05:23:35.393Z,1156.00
2018-06-16T05:24:35.348Z,1216.00
2018-06-16T05:25:35.376Z,1212.00
2018-06-16T05:26:35.336Z,1252.00
2018-06-16T05:27:35.331Z,1260.00
2018-06-16T05:28:35.392Z,1284.00
2018-06-16T05:29:35.312Z,1252.00
2018-06-16T05:30:35.301Z,1264.00
2018-06-16T05:31:35.308Z,1284.00
2018-06-16T05:32:35.295Z,1340.00
2018-06-16T05:33:35.291Z,1340.00
2018-06-16T05:34:35.311Z,1304.00
2018-06-16T05:35:35.271Z,1164.00
2018-06-16T05:36:35.254Z,1068.00
2018-06-16T05:37:35.258Z,1068.00
2018-06-16T05:38:35.253Z,1064.00
2018-06-16T05:39:35.275Z,1032.00
2018-06-16T05:40:35.234Z,1048.00
2018-06-16T05:41:35.229Z,1036.00
2018-06-16T05:42:35.220Z,1044.00
2018-06-16T05:43:35.216Z,1016.00
2018-06-16T05:44:35.233Z,984.00
2018-06-16T05:45:35.246Z,980.00
2018-06-16T05:46:35.187Z,1008.00
2018-06-16T05:47:35.181Z,1080.00
2018-06-16T05:48:35.173Z,1144.00
2018-06-16T05:49:35.161Z,1220.00
2018-06-16T05:50:35.200Z,1332.00
2018-06-16T05:51:35.157Z,1412.00
2018-06-16T05:52:35.153Z,1460.00
2018-06-16T05:53:35.148Z,1584.00
2018-06-16T05:54:35.136Z,1676.00
2018-06-16T05:55:35.168Z,1672.00
2018-06-16T05:56:35.167Z,1672.00
2018-06-16T05:57:35.109Z,1720.00
2018-06-16T05:58:35.114Z,1660.00
2018-06-16T05:59:35.088Z,1620.00
2018-06-16T06:00:35.148Z,1684.00
2018-06-16T06:01:35.075Z,1832.00
2018-06-16T06:02:35.087Z,1880.00
2018-06-16T06:03:35.063Z,1780.00
2018-06-16T06:04:35.059Z,1808.00
2018-06-16T06:05:35.057Z,1896.00
2018-06-16T06:06:35.050Z,1988.00
2018-06-16T06:07:35.099Z,1988.00
2018-06-16T06:08:35.028Z,1900.00
2018-06-16T06:09:35.011Z,1856.00
2018-06-16T06:10:35.044Z,1928.00
2018-06-16T06:11:35.010Z,1916.00
2018-06-16T06:12:35.028Z,2012.00
2018-06-16T06:13:35.030Z,2192.00
2018-06-16T06:14:34.985Z,2340.00
2018-06-16T06:15:34.988Z,2260.00
2018-06-16T06:16:34.978Z,2032.00
2018-06-16T06:17:34.966Z,1992.00
2018-06-16T06:18:35.111Z,2084.00
2018-06-16T06:19:34.965Z,2084.00
2018-06-16T06:20:34.955Z,2044.00
2018-06-16T06:21:34.947Z,2068.00
2018-06-16T06:22:34.932Z,2072.00
2018-06-16T06:23:34.936Z,2068.00
2018-06-16T06:24:34.921Z,2100.00
2018-06-16T06:25:34.914Z,2104.00
2018-06-16T06:26:34.898Z,2152.00
2018-06-16T06:27:34.904Z,2156.00
2018-06-16T06:28:34.892Z,2160.00
2018-06-16T06:29:34.888Z,2180.00
2018-06-16T06:30:34.887Z,2204.00
2018-06-16T06:31:34.873Z,2240.00
2018-06-16T06:32:34.862Z,2264.00
2018-06-16T06:33:34.851Z,2280.00
2018-06-16T06:34:34.855Z,2360.00
2018-06-16T06:35:34.857Z,2464.00
2018-06-16T06:36:34.832Z,2508.00
2018-06-16T06:37:34.931Z,2528.00
2018-06-16T06:38:34.820Z,2472.00
2018-06-16T06:39:34.807Z,2468.00
2018-06-16T06:40:34.813Z,2488.00
2018-06-16T06:41:34.811Z,2548.00
2018-06-16T06:42:34.787Z,2580.00
2018-06-16T06:43:34.978Z,2516.00
2018-06-16T06:44:34.929Z,2500.00
2018-06-16T06:45:34.779Z,2536.00
2018-06-16T06:46:34.782Z,2560.00
2018-06-16T06:47:34.772Z,2644.00
2018-06-16T06:48:34.753Z,2672.00
2018-06-16T06:49:34.744Z,2636.00
2018-06-16T06:50:34.813Z,2600.00
2018-06-16T06:51:34.746Z,2576.00
2018-06-16T06:52:34.730Z,2580.00
2018-06-16T06:53:34.721Z,2632.00
2018-06-16T06:54:34.712Z,2668.00
2018-06-16T06:55:34.727Z,2684.00
2018-06-16T06:56:34.742Z,2732.00
2018-06-16T06:57:34.699Z,2808.00
2018-06-16T06:58:34.712Z,2860.00
2018-06-16T06:59:34.686Z,2868.00
2018-06-16T07:00:34.814Z,2828.00
2018-06-16T07:01:34.677Z,2760.00
2018-06-16T07:02:34.666Z,2716.00
2018-06-16T07:03:34.659Z,2628.00
2018-06-16T07:04:34.656Z,2628.00
2018-06-16T07:05:34.635Z,2592.00
2018-06-16T07:06:34.652Z,2576.00
2018-06-16T07:07:34.640Z,2556.00
2018-06-16T07:08:34.627Z,2596.00
2018-06-16T07:09:34.626Z,2680.00
2018-06-16T07:10:34.630Z,2680.00
2018-06-16T07:11:34.678Z,2788.00
2018-06-16T07:12:34.610Z,2908.00
2018-06-16T07:13:34.599Z,2976.00
2018-06-16T07:14:34.611Z,3112.00
2018-06-16T07:15:34.588Z,3272.00
2018-06-16T07:16:34.590Z,3420.00
2018-06-16T07:17:34.608Z,3420.00
2018-06-16T07:18:34.572Z,3416.00
2018-06-16T07:19:34.557Z,3356.00
2018-06-16T07:20:34.555Z,3288.00
2018-06-16T07:21:34.565Z,3336.00
2018-06-16T07:22:36.415Z,3216.00
2018-06-16T07:23:34.643Z,3108.00
2018-06-16T07:24:34.532Z,3112.00
2018-06-16T07:25:34.562Z,3036.00
2018-06-16T07:26:34.529Z,2992.00
2018-06-16T07:27:34.524Z,2944.00
2018-06-16T07:28:34.626Z,3168.00
2018-06-16T07:29:34.500Z,3144.00
2018-06-16T07:30:34.492Z,3112.00
2018-06-16T07:31:34.485Z,3284.00
2018-06-16T07:32:34.487Z,3352.00
2018-06-16T07:33:34.470Z,3224.00
2018-06-16T07:34:34.522Z,3324.00
2018-06-16T07:35:34.471Z,3204.00
2018-06-16T07:36:34.464Z,2812.00
2018-06-16T07:37:34.454Z,3200.00
2018-06-16T07:38:34.453Z,3344.00
2018-06-16T07:39:34.478Z,3640.00
2018-06-16T07:40:34.578Z,3864.00
2018-06-16T07:41:34.484Z,3564.00
2018-06-16T07:42:34.425Z,3392.00
2018-06-16T07:43:34.409Z,3328.00
2018-06-16T07:44:34.407Z,3556.00
2018-06-16T07:45:34.419Z,4212.00
2018-06-16T07:46:34.403Z,4388.00
2018-06-16T07:47:34.433Z,4356.00
2018-06-16T07:48:34.396Z,3988.00
2018-06-16T07:49:34.370Z,3752.00
2018-06-16T07:50:34.451Z,3072.00
2018-06-16T07:51:34.358Z,2644.00
2018-06-16T07:52:34.362Z,2400.00
2018-06-16T07:53:34.362Z,2740.00
2018-06-16T07:54:34.359Z,2880.00
2018-06-16T07:55:34.344Z,2844.00
2018-06-16T07:56:34.342Z,3084.00
2018-06-16T07:57:34.337Z,3112.00
2018-06-16T07:58:34.324Z,3048.00
2018-06-16T07:59:34.328Z,2824.00
2018-06-16T08:00:34.348Z,2796.00
2018-06-16T08:01:34.323Z,2868.00
2018-06-16T08:02:34.360Z,3072.00
2018-06-16T08:03:34.303Z,3420.00
2018-06-16T08:04:34.302Z,3584.00
2018-06-16T08:05:34.296Z,3764.00
2018-06-16T08:06:34.286Z,4044.00
2018-06-16T08:07:34.292Z,4920.00
2018-06-16T08:08:34.405Z,5268.00
2018-06-16T08:09:34.254Z,5664.00
2018-06-16T08:10:34.252Z,5444.00
2018-06-16T08:11:34.271Z,5356.00
2018-06-16T08:12:34.250Z,4980.00
2018-06-16T08:13:34.288Z,5156.00
2018-06-16T08:14:34.285Z,5200.00
2018-06-16T08:15:34.229Z,5316.00
2018-06-16T08:16:34.226Z,4768.00
2018-06-16T08:17:34.225Z,4764.00
2018-06-16T08:18:34.230Z,4656.00
2018-06-16T08:19:34.247Z,4408.00
2018-06-16T08:20:34.278Z,3936.00
2018-06-16T08:21:34.337Z,3496.00
2018-06-16T08:22:34.203Z,3632.00
2018-06-16T08:23:34.185Z,3956.00
2018-06-16T08:24:34.236Z,4380.00
2018-06-16T08:25:37.040Z,4936.00
2018-06-16T08:26:34.171Z,5864.00
2018-06-16T08:27:34.479Z,4992.00
2018-06-16T08:28:34.204Z,3028.00
2018-06-16T08:29:36.935Z,2772.00
2018-06-16T08:30:34.160Z,3616.00
2018-06-16T08:31:34.902Z,4380.00
2018-06-16T08:32:35.602Z,4144.00
2018-06-16T08:33:34.318Z,4208.00
2018-06-16T08:38:12.301Z,6420.00
2018-06-16T08:39:13.222Z,3052.00
2018-06-16T08:40:12.133Z,3720.00
2018-06-16T08:41:11.875Z,4300.00
2018-06-16T08:42:11.933Z,4776.00
2018-06-16T08:43:11.966Z,5468.00
2018-06-16T08:44:11.870Z,5796.00
2018-06-16T08:45:11.840Z,8924.00
2018-06-16T08:46:11.877Z,9860.00
2018-06-16T08:47:11.851Z,11132.00
2018-06-16T08:48:11.839Z,11932.00
2018-06-16T08:49:11.841Z,10004.00
2018-06-16T08:50:11.863Z,10352.00
2018-06-16T08:51:12.394Z,9776.00
2018-06-16T08:52:11.810Z,9084.00
2018-06-16T08:53:11.804Z,11196.00
2018-06-16T08:54:11.793Z,9212.00
2018-06-16T08:55:11.830Z,14624.00
2018-06-16T08:56:11.792Z,16896.00
2018-06-16T08:57:11.945Z,19104.00
2018-06-16T08:58:11.785Z,16032.00
2018-06-16T08:59:11.782Z,19040.00
2018-06-16T09:00:11.780Z,21472.00
2018-06-16T09:01:11.771Z,18304.00
2018-06-16T09:02:11.789Z,19232.00
2018-06-16T09:03:11.768Z,14784.00
2018-06-16T09:04:11.754Z,15392.00
2018-06-16T09:05:11.759Z,16288.00
2018-06-16T09:06:12.239Z,17376.00
2018-06-16T09:07:11.743Z,23008.00
2018-06-16T09:08:12.862Z,24032.00
2018-06-16T09:09:11.800Z,26848.00
2018-06-16T09:10:11.724Z,27552.00
2018-06-16T09:11:11.724Z,23072.00
2018-06-16T09:12:11.735Z,26240.00
2018-06-16T09:13:11.733Z,26976.00
2018-06-16T09:14:12.769Z,25952.00
2018-06-16T09:15:11.752Z,26176.00
2018-06-16T09:16:11.701Z,19264.00
2018-06-16T09:17:11.753Z,18048.00
2018-06-16T09:18:11.805Z,17536.00
2018-06-16T09:19:12.386Z,19456.00
2018-06-16T09:20:12.546Z,27296.00
2018-06-16T09:21:11.721Z,31008.00
2018-06-16T09:22:11.706Z,31008.00
2018-06-16T09:23:11.713Z,26336.00
2018-06-16T09:24:11.700Z,22848.00
2018-06-16T09:25:11.723Z,23264.00
2018-06-16T09:26:11.739Z,29824.00
2018-06-16T09:27:11.706Z,25792.00
2018-06-16T09:28:11.686Z,24544.00
2018-06-16T09:29:11.679Z,22272.00
2018-06-16T09:30:11.729Z,21728.00
2018-06-16T09:31:11.689Z,19904.00
2018-06-16T09:32:11.735Z,18528.00
2018-06-16T09:33:11.726Z,18176.00
2018-06-16T09:34:11.715Z,16704.00
2018-06-16T09:35:11.692Z,13792.00
2018-06-16T09:36:11.736Z,13888.00
2018-06-16T09:37:11.695Z,13244.00
2018-06-16T09:38:11.679Z,5564.00
2018-06-16T09:39:11.681Z,13664.00
2018-06-16T09:40:11.694Z,5116.00
2018-06-16T09:41:11.678Z,6888.00
2018-06-16T09:42:11.692Z,15552.00
2018-06-16T09:43:11.674Z,20800.00
2018-06-16T09:44:11.660Z,18464.00
2018-06-16T09:45:11.721Z,21728.00
2018-06-16T09:46:11.910Z,21664.00
2018-06-16T09:47:11.702Z,22720.00
2018-06-16T09:48:11.666Z,22912.00
2018-06-16T09:49:11.662Z,22880.00
2018-06-16T09:50:11.656Z,20928.00
2018-06-16T09:51:11.650Z,19136.00
2018-06-16T09:52:19.594Z,15712.00
2018-06-16T09:53:11.718Z,15808.00
2018-06-16T09:54:11.649Z,14784.00
2018-06-16T09:55:11.635Z,14176.00
2018-06-16T09:56:11.745Z,12584.00
2018-06-16T09:57:11.665Z,12252.00
2018-06-16T09:58:14.591Z,17504.00
2018-06-16T09:59:11.631Z,18816.00
2018-06-16T10:00:11.660Z,16000.00
2018-06-16T10:01:11.693Z,16448.00
2018-06-16T10:02:11.636Z,15872.00
2018-06-16T10:03:11.658Z,8172.00
2018-06-16T10:04:11.632Z,5736.00
2018-06-16T10:05:11.617Z,6812.00
2018-06-16T10:06:11.613Z,12564.00
2018-06-16T10:07:11.632Z,4488.00
2018-06-16T10:08:11.609Z,5392.00
2018-06-16T10:09:11.615Z,9952.00
2018-06-16T10:10:11.604Z,19296.00
2018-06-16T10:11:11.602Z,5400.00
2018-06-16T10:12:11.665Z,4616.00
2018-06-16T10:13:11.727Z,19648.00
2018-06-16T10:14:11.585Z,20064.00
2018-06-16T10:15:11.602Z,11020.00
2018-06-16T10:16:11.600Z,5236.00
2018-06-16T10:17:11.579Z,16224.00
2018-06-16T10:18:11.599Z,5176.00
2018-06-16T10:19:11.584Z,15360.00
2018-06-16T10:20:11.583Z,17184.00
2018-06-16T10:21:11.612Z,18656.00
2018-06-16T10:22:11.578Z,18976.00
2018-06-16T10:23:11.605Z,19520.00
2018-06-16T10:24:11.577Z,9440.00
2018-06-16T10:25:11.577Z,4904.00
2018-06-16T10:26:11.561Z,3916.00
2018-06-16T10:27:11.563Z,3040.00
2018-06-16T10:28:11.591Z,2440.00
2018-06-16T10:29:11.561Z,2224.00
2018-06-16T10:30:11.550Z,2008.00
2018-06-16T10:31:11.540Z,2104.00
2018-06-16T10:32:11.557Z,2064.00
2018-06-16T10:33:11.570Z,2120.00
2018-06-16T10:34:11.541Z,2104.00
2018-06-16T10:35:11.540Z,2640.00
2018-06-16T10:36:11.540Z,2840.00
2018-06-16T10:37:11.518Z,2896.00
2018-06-16T10:38:11.588Z,2384.00
2018-06-16T10:39:11.523Z,2112.00
2018-06-16T10:40:11.515Z,2092.00
2018-06-16T10:41:11.517Z,2656.00
2018-06-16T10:42:11.513Z,22112.00
2018-06-16T10:43:11.503Z,5436.00
2018-06-16T10:44:11.532Z,4332.00
2018-06-16T10:45:11.550Z,2900.00
2018-06-16T10:46:11.508Z,2024.00
2018-06-16T10:47:11.520Z,2068.00
2018-06-16T10:48:11.487Z,2096.00
2018-06-16T10:49:11.489Z,2372.00
2018-06-16T10:50:11.491Z,2924.00
2018-06-16T10:51:11.621Z,5376.00
2018-06-16T10:52:11.463Z,19744.00
2018-06-16T10:53:11.465Z,22432.00
2018-06-16T10:54:11.462Z,19264.00
2018-06-16T10:55:11.451Z,17408.00
2018-06-16T10:56:11.457Z,14176.00
2018-06-16T10:57:11.455Z,12608.00
2018-06-16T10:58:11.496Z,11768.00
2018-06-16T10:59:11.444Z,19360.00
2018-06-16T11:00:11.438Z,7160.00
2018-06-16T11:01:11.454Z,16512.00
2018-06-16T11:02:11.448Z,25280.00
2018-06-16T11:03:11.419Z,29344.00
2018-06-16T11:04:11.798Z,34112.00
2018-06-16T11:05:11.411Z,31520.00
2018-06-16T11:06:11.416Z,29792.00
2018-06-16T11:07:11.463Z,22048.00
2018-06-16T11:08:11.427Z,7976.00
2018-06-16T11:09:12.138Z,36864.00
2018-06-16T11:10:11.459Z,35392.00
2018-06-16T11:11:11.400Z,29248.00
2018-06-16T11:12:11.435Z,26944.00
2018-06-16T11:13:11.527Z,32288.00
2018-06-16T11:14:11.457Z,38752.00
2018-06-16T11:15:11.401Z,31392.00
2018-06-16T11:16:11.398Z,25088.00
2018-06-16T11:17:11.400Z,29344.00
2018-06-16T11:18:11.436Z,8832.00
2018-06-16T11:19:11.399Z,6228.00
2018-06-16T11:20:11.387Z,16640.00
2018-06-16T11:21:11.407Z,18688.00
2018-06-16T11:22:11.378Z,20800.00
2018-06-16T11:23:11.462Z,17696.00
2018-06-16T11:24:11.391Z,5820.00
2018-06-16T11:25:11.379Z,7552.00
2018-06-16T11:26:11.385Z,27808.00
2018-06-16T11:27:11.384Z,21408.00
2018-06-16T11:28:11.412Z,26176.00
2018-06-16T11:29:11.438Z,8316.00
2018-06-16T11:30:11.375Z,28768.00
2018-06-16T11:31:11.362Z,26784.00
2018-06-16T11:32:11.439Z,9640.00
2018-06-16T11:33:11.371Z,15552.00
2018-06-16T11:34:11.366Z,12936.00
2018-06-16T11:35:11.432Z,17824.00
2018-06-16T11:36:11.368Z,16800.00
2018-06-16T11:37:11.372Z,25152.00
2018-06-16T11:38:12.121Z,15168.00
2018-06-16T11:39:11.370Z,24672.00
2018-06-16T11:40:11.352Z,10480.00
2018-06-16T11:41:11.506Z,7396.00
2018-06-16T11:42:11.351Z,36608.00
2018-06-16T11:43:11.360Z,22688.00
2018-06-16T11:44:11.342Z,18112.00
2018-06-16T11:45:11.333Z,5700.00
2018-06-16T11:46:11.364Z,5992.00
2018-06-16T11:47:11.342Z,6724.00
2018-06-16T11:48:11.371Z,5732.00
2018-06-16T11:49:11.519Z,5612.00
2018-06-16T11:50:11.339Z,6688.00
2018-06-16T11:51:11.329Z,7124.00
2018-06-16T11:52:11.451Z,7224.00
2018-06-16T11:53:11.332Z,7108.00
2018-06-16T11:54:11.332Z,6608.00
2018-06-16T11:55:11.332Z,6452.00
2018-06-16T11:56:11.330Z,6180.00
2018-06-16T11:57:11.372Z,5644.00
2018-06-16T11:58:11.336Z,5684.00
2018-06-16T11:59:11.326Z,5840.00
2018-06-16T12:00:11.322Z,5992.00
2018-06-16T12:01:11.312Z,5812.00
2018-06-16T12:02:11.296Z,5780.00
2018-06-16T12:03:12.161Z,5948.00
2018-06-16T12:04:11.305Z,6248.00
2018-06-16T12:05:11.294Z,6256.00
2018-06-16T12:06:11.307Z,6016.00
2018-06-16T12:07:11.300Z,5616.00
2018-06-16T12:08:12.638Z,6048.00
2018-06-16T12:09:11.281Z,6376.00
2018-06-16T12:10:11.313Z,6076.00
2018-06-16T12:11:11.293Z,5844.00
2018-06-16T12:12:11.278Z,5660.00
2018-06-16T12:13:11.311Z,5824.00
2018-06-16T12:14:11.259Z,5812.00
2018-06-16T12:15:11.531Z,5868.00
2018-06-16T12:16:12.149Z,6036.00
2018-06-16T12:17:11.252Z,5632.00
2018-06-16T12:18:11.269Z,5516.00
2018-06-16T12:19:11.275Z,5224.00
2018-06-16T12:20:11.250Z,4808.00
2018-06-16T12:21:11.286Z,5152.00
2018-06-16T12:22:11.249Z,5604.00
2018-06-16T12:23:11.247Z,4840.00
2018-06-16T12:24:11.236Z,4972.00
2018-06-16T12:25:11.233Z,4628.00
2018-06-16T12:26:11.404Z,4972.00
2018-06-16T12:27:11.231Z,5424.00